SVA1155 OERK-OEJN
Flight info
| Callsign | SVA1155 |
|---|---|
| Flight time | N/A |
| Altitude | 38000 |
| Route | DURMA G782 VEMEM |
| Aircraft | B77W/H-SDE1E2E3FGHIJ2J3J4J5M1RWXY/LB1D1 |
Departure
| Time | 2026-05-01 15:32 |
|---|---|
| Airport | King Khalid International Airport (OERK) |
Arrival
| Time | N/A |
|---|---|
| Airport | King Abdulaziz International Airport (OEJN) |
| Time | Latitude | Longitude | Altitude | Speed | Heading |
|---|---|---|---|---|---|
| 2026-05-01 15:16 | 24.96470 | 46.70188 | 2057 ft | 0 kts | 237° |
| 2026-05-01 15:23 | 24.96473 | 46.70194 | 2059 ft | 4 kts | 237° |
| 2026-05-01 15:24 | 24.96488 | 46.70219 | 2053 ft | 4 kts | 238° |
| 2026-05-01 15:24 | 24.96502 | 46.70244 | 2054 ft | 4 kts | 238° |
| 2026-05-01 15:24 | 24.96516 | 46.70267 | 2053 ft | 4 kts | 241° |
| 2026-05-01 15:24 | 24.96520 | 46.70286 | 2053 ft | 4 kts | 324° |
| 2026-05-01 15:25 | 24.96497 | 46.70298 | 2057 ft | 4 kts | 338° |
| 2026-05-01 15:25 | 24.96482 | 46.70306 | 2053 ft | 1 kts | 330° |
| 2026-05-01 15:25 | 24.96480 | 46.70307 | 2053 ft | 0 kts | 330° |
| 2026-05-01 15:28 | 24.96483 | 46.70305 | 2053 ft | 1 kts | 330° |
| 2026-05-01 15:28 | 24.96498 | 46.70296 | 2056 ft | 8 kts | 330° |
| 2026-05-01 15:28 | 24.96595 | 46.70235 | 2053 ft | 22 kts | 330° |
| 2026-05-01 15:29 | 24.96830 | 46.70090 | 2057 ft | 17 kts | 339° |
| 2026-05-01 15:29 | 24.96927 | 46.70143 | 2057 ft | 17 kts | 55° |
| 2026-05-01 15:29 | 24.97100 | 46.70232 | 2054 ft | 17 kts | 332° |
| 2026-05-01 15:30 | 24.97305 | 46.70102 | 2052 ft | 17 kts | 330° |
| 2026-05-01 15:31 | 24.97653 | 46.70196 | 2047 ft | 17 kts | 98° |
| 2026-05-01 15:31 | 24.97599 | 46.70258 | 2048 ft | 6 kts | 150° |
| 2026-05-01 15:32 | 24.96484 | 46.70966 | 2051 ft | 196 kts | 152° |
| 2026-05-01 15:32 | 24.93808 | 46.72582 | 4514 ft | 209 kts | 150° |
| 2026-05-01 15:33 | 24.89108 | 46.73058 | 6502 ft | 270 kts | 194° |
| 2026-05-01 15:34 | 24.85550 | 46.68512 | 9582 ft | 276 kts | 244° |